Espanola, Washington
Current Conditions -  °F | °C
As of 7:58 AM on Friday 24 Oct 2014 (Local Time) from KSKA Reporting Station
Clear Clear  
Wind Chill:   Ceiling: Unl
Heat Index:   Visibility: 10mi
Dew Point:   Wind: 3mph
Humidity: 97%   Direction: 140°SE
Pressure: 30.07"   Gusts: NA
Location:  47.6094°N, 117.705°W
Report Text: KSKA 241458Z AUTO 14003KT 10SM CLR 05/04 A3007 RMK AO2 SLP195 T00480044 52012
Loading
Personal Weather Stations






























Interactive Weather Map
Tropical Storm Tracking
New forecast layout! Learn more

10-Day Weather Forecast

Advertisements
Track Severe Weather on mobile